createdAt,value
2019-05-13T00:02:06.313Z,232.87
2019-05-13T00:06:16.720Z,236.03
2019-05-13T00:10:27.119Z,245.77
2019-05-13T00:14:39.056Z,243.30
2019-05-13T00:18:49.565Z,227.40
2019-05-13T00:23:00.092Z,230.10
2019-05-13T00:27:10.856Z,227.87
2019-05-13T00:31:21.186Z,226.33
2019-05-13T00:35:33.611Z,233.03
2019-05-13T00:39:44.211Z,223.47
2019-05-13T00:43:54.729Z,228.67
2019-05-13T00:48:05.073Z,227.73
2019-05-13T00:52:15.353Z,226.67
2019-05-13T00:56:25.667Z,228.50
2019-05-13T01:00:36.156Z,232.10
2019-05-13T01:04:46.481Z,222.67
2019-05-13T01:08:56.799Z,227.53
2019-05-13T01:13:07.151Z,239.77
2019-05-13T01:17:17.481Z,228.60
2019-05-13T01:21:27.818Z,233.20
2019-05-13T01:25:38.913Z,232.53
2019-05-13T01:29:49.335Z,232.83
2019-05-13T01:33:59.774Z,228.60
2019-05-13T01:38:10.394Z,228.17
2019-05-13T01:42:21.121Z,236.60
2019-05-13T01:46:31.534Z,234.83
2019-05-13T01:50:43.773Z,236.60
2019-05-13T01:54:54.327Z,222.17
2019-05-13T01:59:04.940Z,231.40
2019-05-13T02:03:16.081Z,239.10
2019-05-13T02:07:26.483Z,227.63
2019-05-13T02:11:37.015Z,230.83
2019-05-13T02:15:47.309Z,227.97
2019-05-13T02:19:57.573Z,230.03
2019-05-13T02:24:08.167Z,234.13
2019-05-13T02:28:18.592Z,235.77
2019-05-13T02:32:32.646Z,226.10
2019-05-13T02:36:43.644Z,225.77
2019-05-13T02:40:54.037Z,232.40
2019-05-13T02:45:06.382Z,230.50
2019-05-13T02:49:16.706Z,228.33
2019-05-13T02:53:27.046Z,234.33
2019-05-13T02:57:38.154Z,221.00
2019-05-13T03:01:48.501Z,228.58
2019-05-13T03:05:58.931Z,225.87
2019-05-13T03:10:09.724Z,224.80
2019-05-13T03:14:23.692Z,237.77
2019-05-13T03:18:33.372Z,243.90
2019-05-13T03:22:44.074Z,226.47
2019-05-13T03:26:54.398Z,218.97
2019-05-13T03:31:07.588Z,217.03
2019-05-13T03:35:18.159Z,221.50
2019-05-13T03:39:29.322Z,229.90
2019-05-13T03:43:43.222Z,223.03
2019-05-13T03:47:56.590Z,220.90
2019-05-13T03:52:06.903Z,221.30
2019-05-13T03:56:17.884Z,218.63
2019-05-13T04:00:28.172Z,240.27
2019-05-13T04:04:38.501Z,235.80
2019-05-13T04:08:53.596Z,230.23
2019-05-13T04:13:03.776Z,244.10
2019-05-13T04:17:13.935Z,237.30
2019-05-13T04:21:24.312Z,236.40
2019-05-13T04:25:39.478Z,242.13
2019-05-13T04:29:47.855Z,248.70
2019-05-13T04:33:58.213Z,230.13
2019-05-13T04:38:12.193Z,237.87
2019-05-13T04:42:23.172Z,239.77
2019-05-13T04:46:32.972Z,245.60
2019-05-13T04:50:43.361Z,247.70
2019-05-13T04:54:53.744Z,244.13
2019-05-13T04:59:04.265Z,239.30
2019-05-13T05:03:40.803Z,237.83
2019-05-13T05:07:56.384Z,241.03
2019-05-13T05:12:42.650Z,243.80
2019-05-13T05:17:28.898Z,234.57
2019-05-13T05:21:55.572Z,241.50
2019-05-13T05:26:22.087Z,248.33
2019-05-13T05:30:41.287Z,259.23
2019-05-13T05:35:06.797Z,240.23
2019-05-13T05:39:22.983Z,242.00
2019-05-13T05:43:38.188Z,243.57
2019-05-13T05:47:51.459Z,241.93
2019-05-13T05:52:04.560Z,244.57
2019-05-13T05:56:16.597Z,246.23
2019-05-13T06:00:26.989Z,245.07
2019-05-13T06:04:37.639Z,246.97
2019-05-13T06:08:47.950Z,248.53
2019-05-13T06:13:01.859Z,251.00
2019-05-13T06:17:12.245Z,247.20
2019-05-13T06:21:22.816Z,262.90
2019-05-13T06:25:33.844Z,259.83
2019-05-13T06:29:44.724Z,244.40
2019-05-13T06:33:55.265Z,241.13
2019-05-13T06:38:05.572Z,239.70
2019-05-13T06:42:15.917Z,246.57
2019-05-13T06:46:26.240Z,249.00
2019-05-13T06:50:36.597Z,260.07
2019-05-13T06:54:46.891Z,249.67
2019-05-13T06:58:57.231Z,249.43
2019-05-13T07:03:07.617Z,249.63
2019-05-13T07:07:18.566Z,242.97
2019-05-13T07:11:31.440Z,251.97
2019-05-13T07:15:41.839Z,257.50
2019-05-13T07:19:52.106Z,252.70
2019-05-13T07:24:02.601Z,251.57
2019-05-13T07:28:12.967Z,248.70
2019-05-13T07:32:23.303Z,250.50
2019-05-13T07:36:33.788Z,248.87
2019-05-13T07:40:44.675Z,249.90
2019-05-13T07:44:55.833Z,245.23
2019-05-13T07:49:06.236Z,257.17
2019-05-13T07:53:18.951Z,255.67
2019-05-13T07:57:28.678Z,250.77
2019-05-13T08:01:41.517Z,257.53
2019-05-13T08:05:51.376Z,244.53
2019-05-13T08:10:03.539Z,250.40
2019-05-13T08:14:13.760Z,262.03
2019-05-13T08:18:24.185Z,261.67
2019-05-13T08:22:35.172Z,253.93
2019-05-13T08:26:49.960Z,247.47
2019-05-13T08:30:57.454Z,241.50
2019-05-13T08:35:12.319Z,245.27
2019-05-13T08:39:21.777Z,249.33
2019-05-13T08:43:32.322Z,260.37
2019-05-13T08:47:42.724Z,244.67
2019-05-13T08:51:53.063Z,262.07
2019-05-13T08:56:03.459Z,248.40
2019-05-13T09:00:14.126Z,248.70
2019-05-13T09:04:24.696Z,251.43
2019-05-13T09:08:35.005Z,243.67
2019-05-13T09:12:46.025Z,251.43
2019-05-13T09:16:56.534Z,243.60
2019-05-13T09:21:08.078Z,245.70
2019-05-13T09:25:21.409Z,245.90
2019-05-13T09:29:32.190Z,250.03
2019-05-13T09:33:42.822Z,244.07
2019-05-13T09:37:53.144Z,247.73
2019-05-13T09:42:04.865Z,250.93
2019-05-13T09:46:15.241Z,257.07
2019-05-13T09:50:32.119Z,253.90
2019-05-13T09:54:37.544Z,254.77
2019-05-13T09:58:47.837Z,245.13
2019-05-13T10:02:58.460Z,253.13
2019-05-13T10:07:08.766Z,249.33
2019-05-13T10:11:21.531Z,252.90
2019-05-13T10:15:32.570Z,252.23
2019-05-13T10:19:43.890Z,257.67
2019-05-13T10:23:58.627Z,253.03
2019-05-13T10:28:07.914Z,242.93
2019-05-13T10:32:18.667Z,246.53
2019-05-13T10:36:31.116Z,245.53
2019-05-13T10:40:43.280Z,246.60
2019-05-13T10:44:54.096Z,249.70
2019-05-13T10:49:04.425Z,242.60
2019-05-13T10:53:14.755Z,254.77
2019-05-13T10:57:25.213Z,244.97
2019-05-13T11:01:35.656Z,252.07
2019-05-13T11:05:47.477Z,249.07
2019-05-13T11:09:57.803Z,255.60
2019-05-13T11:14:11.253Z,255.50
2019-05-13T11:18:23.711Z,244.13
2019-05-13T11:22:32.936Z,251.23
2019-05-13T11:26:43.305Z,244.93
2019-05-13T11:30:59.559Z,239.37
2019-05-13T11:35:07.719Z,245.17
2019-05-13T11:39:18.020Z,245.53
2019-05-13T11:43:28.525Z,245.60
2019-05-13T11:47:40.917Z,244.97
2019-05-13T11:51:51.984Z,249.10
2019-05-13T11:56:03.573Z,243.47
2019-05-13T12:00:14.735Z,244.93
2019-05-13T12:04:25.070Z,239.37
2019-05-13T12:08:35.357Z,244.90
2019-05-13T12:12:45.891Z,252.50
2019-05-13T12:16:56.190Z,237.60
2019-05-13T12:21:06.531Z,241.27
2019-05-13T12:25:16.834Z,238.57
2019-05-13T12:29:27.254Z,245.87
2019-05-13T12:33:37.952Z,247.40
2019-05-13T12:37:48.508Z,240.40
2019-05-13T12:41:58.723Z,250.90
2019-05-13T12:46:12.288Z,243.17
2019-05-13T12:50:23.618Z,245.50
2019-05-13T12:54:33.432Z,258.33
2019-05-13T12:58:44.074Z,242.23
2019-05-13T13:02:54.476Z,235.33
2019-05-13T13:07:05.151Z,241.10
2019-05-13T13:11:15.712Z,233.53
2019-05-13T13:15:41.127Z,247.23
2019-05-13T13:19:37.972Z,242.73
2019-05-13T13:23:48.339Z,240.63
2019-05-13T13:28:10.105Z,235.73
2019-05-13T13:32:13.280Z,235.97
2019-05-13T13:36:24.292Z,236.73
2019-05-13T13:40:35.505Z,249.17
2019-05-13T13:44:46.015Z,241.33
2019-05-13T13:48:56.364Z,242.53
2019-05-13T13:53:06.670Z,241.63
2019-05-13T13:57:17.041Z,236.67
2019-05-13T14:01:27.774Z,232.80
2019-05-13T14:05:42.581Z,247.50
2019-05-13T14:09:51.805Z,246.13
2019-05-13T14:14:02.337Z,245.30
2019-05-13T14:18:12.708Z,245.77
2019-05-13T14:22:23.229Z,247.20
2019-05-13T14:26:33.670Z,234.93
2019-05-13T14:30:43.974Z,250.70
2019-05-13T14:34:54.324Z,244.27
2019-05-13T14:39:06.775Z,249.67
2019-05-13T14:43:17.118Z,252.67
2019-05-13T14:47:27.550Z,244.97
2019-05-13T14:51:37.880Z,247.63
2019-05-13T14:55:48.238Z,244.33
2019-05-13T14:59:58.563Z,241.80
2019-05-13T15:04:09.085Z,241.77
2019-05-13T15:08:24.991Z,249.40
2019-05-13T15:12:32.249Z,242.30
2019-05-13T15:16:42.808Z,246.40
2019-05-13T15:20:53.199Z,248.23
2019-05-13T15:25:04.509Z,235.27
2019-05-13T15:29:14.996Z,238.93
2019-05-13T15:33:26.695Z,245.57
2019-05-13T15:37:37.481Z,238.03
2019-05-13T15:41:47.745Z,244.00
2019-05-13T15:45:58.045Z,245.60
2019-05-13T15:50:08.786Z,239.97
2019-05-13T15:54:21.923Z,239.27
2019-05-13T15:58:40.388Z,247.93
2019-05-13T16:02:43.946Z,236.13
2019-05-13T16:06:54.488Z,242.90
2019-05-13T16:11:04.833Z,240.40
2019-05-13T16:15:16.035Z,253.06
2019-05-13T16:19:26.432Z,239.37
2019-05-13T16:23:36.780Z,253.33
2019-05-13T16:27:47.319Z,244.30
2019-05-13T16:31:57.903Z,239.73
2019-05-13T16:36:08.142Z,241.20
2019-05-13T16:40:18.692Z,240.67
2019-05-13T16:44:31.833Z,242.53
2019-05-13T16:48:43.316Z,244.43
2019-05-13T16:52:54.220Z,243.40
2019-05-13T16:57:05.903Z,245.77
2019-05-13T17:01:16.317Z,248.17
2019-05-13T17:05:26.652Z,254.77
2019-05-13T17:09:36.912Z,243.70
2019-05-13T17:13:47.289Z,242.03
2019-05-13T17:18:11.059Z,244.00
2019-05-13T17:22:09.623Z,249.80
2019-05-13T17:26:21.948Z,243.00
2019-05-13T17:30:32.103Z,240.40
2019-05-13T17:34:45.482Z,236.13
2019-05-13T17:38:54.594Z,237.07
2019-05-13T17:43:05.160Z,243.90
2019-05-13T17:47:15.464Z,247.07
2019-05-13T17:51:25.776Z,241.63
2019-05-13T17:55:36.421Z,237.87
2019-05-13T17:59:46.989Z,238.13
2019-05-13T18:03:58.382Z,233.40
2019-05-13T18:08:11.299Z,243.93
2019-05-13T18:12:22.342Z,244.77
2019-05-13T18:16:32.752Z,240.80
2019-05-13T18:20:42.947Z,254.50
2019-05-13T18:24:53.353Z,240.83
2019-05-13T18:29:03.916Z,242.90
2019-05-13T18:33:15.042Z,244.67
2019-05-13T18:37:25.557Z,236.40
2019-05-13T18:41:36.015Z,245.53
2019-05-13T18:45:46.344Z,248.57
2019-05-13T18:49:56.699Z,248.53
2019-05-13T18:54:07.032Z,240.83
2019-05-13T18:58:17.431Z,239.90
2019-05-13T19:02:27.879Z,232.87
2019-05-13T19:06:38.138Z,235.13
2019-05-13T19:10:48.598Z,243.17
2019-05-13T19:14:59.019Z,243.60
2019-05-13T19:19:13.420Z,241.30
2019-05-13T19:23:22.229Z,238.30
2019-05-13T19:27:34.074Z,233.13
2019-05-13T19:31:45.335Z,241.57
2019-05-13T19:35:55.653Z,239.30
2019-05-13T19:40:07.581Z,248.20
2019-05-13T19:44:17.992Z,236.70
2019-05-13T19:48:28.255Z,251.73
2019-05-13T19:52:38.508Z,247.60
2019-05-13T19:56:48.769Z,240.27
2019-05-13T20:01:01.295Z,240.30
2019-05-13T20:05:11.825Z,239.67
2019-05-13T20:09:22.221Z,236.80
2019-05-13T20:13:33.232Z,235.80
2019-05-13T20:17:45.196Z,236.57
2019-05-13T20:21:59.224Z,238.90
2019-05-13T20:26:11.279Z,231.27
2019-05-13T20:30:22.961Z,237.80
2019-05-13T20:34:36.362Z,237.57
2019-05-13T20:38:47.141Z,235.57
2019-05-13T20:42:58.713Z,231.63
2019-05-13T20:47:10.914Z,234.40
2019-05-13T20:51:22.360Z,241.43
2019-05-13T20:55:34.716Z,243.47
2019-05-13T20:59:46.968Z,235.27
2019-05-13T21:03:58.620Z,238.90
2019-05-13T21:08:10.138Z,229.00
2019-05-13T21:12:22.069Z,231.37
2019-05-13T21:16:34.579Z,233.83
2019-05-13T21:20:46.611Z,243.40
2019-05-13T21:24:59.003Z,225.47
2019-05-13T21:29:11.750Z,235.47
2019-05-13T21:33:25.473Z,236.13
2019-05-13T21:37:37.304Z,231.43
2019-05-13T21:41:51.928Z,240.17
2019-05-13T21:46:03.141Z,248.47
2019-05-13T21:50:14.538Z,235.30
2019-05-13T21:54:25.157Z,239.70
2019-05-13T21:58:35.701Z,237.93
2019-05-13T22:02:46.860Z,230.23
2019-05-13T22:06:58.302Z,235.53
2019-05-13T22:11:08.733Z,233.50
2019-05-13T22:15:21.851Z,238.00
2019-05-13T22:19:33.456Z,225.90
2019-05-13T22:23:43.796Z,235.97
2019-05-13T22:27:54.213Z,234.83
2019-05-13T22:32:04.883Z,231.53
2019-05-13T22:36:15.294Z,223.37
2019-05-13T22:40:26.234Z,238.00
2019-05-13T22:44:36.737Z,237.03
2019-05-13T22:48:47.069Z,233.57
2019-05-13T22:52:57.511Z,237.97
2019-05-13T22:57:07.821Z,225.67
2019-05-13T23:01:18.134Z,227.87
2019-05-13T23:05:29.673Z,230.57
2019-05-13T23:09:41.621Z,237.77
2019-05-13T23:14:05.327Z,229.27
2019-05-13T23:18:04.143Z,228.47
2019-05-13T23:22:14.635Z,222.63
2019-05-13T23:26:25.057Z,225.40
2019-05-13T23:30:35.645Z,232.40
2019-05-13T23:34:46.347Z,227.73
2019-05-13T23:38:56.657Z,225.10
2019-05-13T23:43:06.955Z,232.97
2019-05-13T23:47:17.356Z,230.30
2019-05-13T23:51:27.953Z,233.47
2019-05-13T23:55:38.415Z,240.00
2019-05-13T23:59:50.944Z,224.23
